sensor_id;sensor_type;location;lat;lon;timestamp;temperature;humidity
14016;DHT22;7083;48.854;9.158;2024-01-15T00:00:16;-2.20;99.90
14016;DHT22;7083;48.854;9.158;2024-01-15T00:02:44;-2.40;99.90
14016;DHT22;7083;48.854;9.158;2024-01-15T00:05:11;-2.50;99.90
14016;DHT22;7083;48.854;9.158;2024-01-15T00:07:37;-2.60;99.90
14016;DHT22;7083;48.854;9.158;2024-01-15T00:10:04;-2.70;99.90
14016;DHT22;7083;48.854;9.158;2024-01-15T00:12:31;-2.80;99.90
14016;DHT22;7083;48.854;9.158;2024-01-15T00:14:58;-2.90;99.90
14016;DHT22;7083;48.854;9.158;2024-01-15T00:17:25;-1.10;99.90
14016;DHT22;7083;48.854;9.158;2024-01-15T00:19:53;-3.00;99.90
14016;DHT22;7083;48.854;9.158;2024-01-15T00:22:19;-3.10;99.90
14016;DHT22;7083;48.854;9.158;2024-01-15T00:24:46;-3.10;99.90
14016;DHT22;7083;48.854;9.158;2024-01-15T00:27:13;-3.20;99.90
14016;DHT22;7083;48.854;9.158;2024-01-15T00:29:40;-3.30;99.90
14016;DHT22;7083;48.854;9.158;2024-01-15T00:32:06;-3.40;99.90
14016;DHT22;7083;48.854;9.158;2024-01-15T00:37:13;-3.50;99.90
14016;DHT22;7083;48.854;9.158;2024-01-15T00:39:39;-3.50;99.90
14016;DHT22;7083;48.854;9.158;2024-01-15T00:42:06;-3.50;99.90
14016;DHT22;7083;48.854;9.158;2024-01-15T00:44:33;-3.50;99.90
14016;DHT22;7083;48.854;9.158;2024-01-15T00:46:59;-3.50;99.90
14016;DHT22;7083;48.854;9.158;2024-01-15T00:49:27;-3.40;99.90
14016;DHT22;7083;48.854;9.158;2024-01-15T00:51:54;-3.30;99.90
14016;DHT22;7083;48.854;9.158;2024-01-15T00:54:22;-3.30;99.90
14016;DHT22;7083;48.854;9.158;2024-01-15T00:56:48;-3.20;99.90
14016;DHT22;7083;48.854;9.158;2024-01-15T00:59:15;-3.20;99.90
14016;DHT22;7083;48.854;9.158;2024-01-15T01:01:43;-3.10;99.90
14016;DHT22;7083;48.854;9.158;2024-01-15T01:04:11;-3.00;99.90
14016;DHT22;7083;48.854;9.158;2024-01-15T01:06:38;-3.00;99.90
14016;DHT22;7083;48.854;9.158;2024-01-15T01:09:05;-2.80;99.90
14016;DHT22;7083;48.854;9.158;2024-01-15T01:11:33;-2.70;99.90
14016;DHT22;7083;48.854;9.158;2024-01-15T01:14:00;-2.60;99.90
14016;DHT22;7083;48.854;9.158;2024-01-15T01:16:27;-2.50;99.90
14016;DHT22;7083;48.854;9.158;2024-01-15T01:18:53;-2.40;99.90
14016;DHT22;7083;48.854;9.158;2024-01-15T01:21:20;-2.40;99.90
14016;DHT22;7083;48.854;9.158;2024-01-15T01:23:47;-2.30;99.90
14016;DHT22;7083;48.854;9.158;2024-01-15T01:26:15;-2.20;99.90
14016;DHT22;7083;48.854;9.158;2024-01-15T01:28:43;-2.10;99.90
14016;DHT22;7083;48.854;9.158;2024-01-15T01:31:10;-2.00;99.90
14016;DHT22;7083;48.854;9.158;2024-01-15T01:33:38;-2.00;99.90
14016;DHT22;7083;48.854;9.158;2024-01-15T01:36:07;-1.90;99.90
14016;DHT22;7083;48.854;9.158;2024-01-15T01:38:34;-1.90;99.90
14016;DHT22;7083;48.854;9.158;2024-01-15T01:41:01;-1.80;99.90
14016;DHT22;7083;48.854;9.158;2024-01-15T01:43:27;-1.80;99.90
14016;DHT22;7083;48.854;9.158;2024-01-15T01:45:56;-1.70;99.90
14016;DHT22;7083;48.854;9.158;2024-01-15T01:48:24;-1.70;99.90
14016;DHT22;7083;48.854;9.158;2024-01-15T01:50:51;-1.70;99.90
14016;DHT22;7083;48.854;9.158;2024-01-15T01:53:19;-1.70;99.90
14016;DHT22;7083;48.854;9.158;2024-01-15T01:55:46;-1.60;99.90
14016;DHT22;7083;48.854;9.158;2024-01-15T01:58:14;-1.70;99.90
14016;DHT22;7083;48.854;9.158;2024-01-15T02:00:41;-1.70;99.90
14016;DHT22;7083;48.854;9.158;2024-01-15T02:03:09;-1.70;99.90
14016;DHT22;7083;48.854;9.158;2024-01-15T02:05:37;-1.70;99.90
14016;DHT22;7083;48.854;9.158;2024-01-15T02:08:06;-1.70;99.90
14016;DHT22;7083;48.854;9.158;2024-01-15T02:10:32;-1.70;99.90
14016;DHT22;7083;48.854;9.158;2024-01-15T02:12:59;-1.80;99.90
14016;DHT22;7083;48.854;9.158;2024-01-15T02:15:26;-1.70;99.90
14016;DHT22;7083;48.854;9.158;2024-01-15T02:18:00;-1.70;99.90
14016;DHT22;7083;48.854;9.158;2024-01-15T02:20:28;-1.70;99.90
14016;DHT22;7083;48.854;9.158;2024-01-15T02:23:08;-1.70;99.90
14016;DHT22;7083;48.854;9.158;2024-01-15T02:25:37;-1.70;99.90
14016;DHT22;7083;48.854;9.158;2024-01-15T02:28:05;-1.70;99.90
14016;DHT22;7083;48.854;9.158;2024-01-15T02:30:32;-1.60;99.90
14016;DHT22;7083;48.854;9.158;2024-01-15T02:33:01;-1.60;99.90
14016;DHT22;7083;48.854;9.158;2024-01-15T02:35:27;-1.60;99.90
14016;DHT22;7083;48.854;9.158;2024-01-15T02:37:54;-1.60;99.90
14016;DHT22;7083;48.854;9.158;2024-01-15T02:40:22;-1.60;99.90
14016;DHT22;7083;48.854;9.158;2024-01-15T02:42:49;-1.70;99.90
14016;DHT22;7083;48.854;9.158;2024-01-15T02:45:17;-1.70;99.90
14016;DHT22;7083;48.854;9.158;2024-01-15T02:47:44;-1.70;99.90
14016;DHT22;7083;48.854;9.158;2024-01-15T02:50:10;-1.80;99.90
14016;DHT22;7083;48.854;9.158;2024-01-15T02:52:37;-1.80;99.90
14016;DHT22;7083;48.854;9.158;2024-01-15T02:55:04;-1.90;99.90
14016;DHT22;7083;48.854;9.158;2024-01-15T02:57:32;-1.90;99.90
14016;DHT22;7083;48.854;9.158;2024-01-15T02:59:59;-1.90;99.90
14016;DHT22;7083;48.854;9.158;2024-01-15T03:02:26;-2.00;99.90
14016;DHT22;7083;48.854;9.158;2024-01-15T03:04:53;-1.90;99.90
14016;DHT22;7083;48.854;9.158;2024-01-15T03:07:19;-2.00;99.90
14016;DHT22;7083;48.854;9.158;2024-01-15T03:09:46;-2.00;99.90
14016;DHT22;7083;48.854;9.158;2024-01-15T03:12:13;-2.00;99.90
14016;DHT22;7083;48.854;9.158;2024-01-15T03:14:41;-2.10;99.90
14016;DHT22;7083;48.854;9.158;2024-01-15T03:17:07;-2.10;99.90
14016;DHT22;7083;48.854;9.158;2024-01-15T03:19:35;-2.10;99.90
14016;DHT22;7083;48.854;9.158;2024-01-15T03:22:02;-2.00;99.90
14016;DHT22;7083;48.854;9.158;2024-01-15T03:24:29;-2.00;99.90
14016;DHT22;7083;48.854;9.158;2024-01-15T03:26:56;-2.00;99.90
14016;DHT22;7083;48.854;9.158;2024-01-15T03:29:23;-2.00;99.90
14016;DHT22;7083;48.854;9.158;2024-01-15T03:31:51;-2.00;99.90
14016;DHT22;7083;48.854;9.158;2024-01-15T03:34:18;-2.00;99.90
14016;DHT22;7083;48.854;9.158;2024-01-15T03:36:45;-2.10;99.90
14016;DHT22;7083;48.854;9.158;2024-01-15T03:39:11;-2.10;99.90
14016;DHT22;7083;48.854;9.158;2024-01-15T03:41:38;-2.10;99.90
14016;DHT22;7083;48.854;9.158;2024-01-15T03:44:05;-2.10;99.90
14016;DHT22;7083;48.854;9.158;2024-01-15T03:46:32;-2.00;99.90
14016;DHT22;7083;48.854;9.158;2024-01-15T03:49:00;-1.90;99.90
14016;DHT22;7083;48.854;9.158;2024-01-15T03:51:27;-1.80;99.90
14016;DHT22;7083;48.854;9.158;2024-01-15T03:53:53;-1.60;99.90
14016;DHT22;7083;48.854;9.158;2024-01-15T03:56:20;-1.50;99.90
14016;DHT22;7083;48.854;9.158;2024-01-15T03:58:47;-1.30;99.90
14016;DHT22;7083;48.854;9.158;2024-01-15T04:01:13;-1.20;99.90
14016;DHT22;7083;48.854;9.158;2024-01-15T04:03:40;-1.10;99.90
14016;DHT22;7083;48.854;9.158;2024-01-15T04:06:08;-1.00;99.90
14016;DHT22;7083;48.854;9.158;2024-01-15T04:08:35;-1.00;99.90
14016;DHT22;7083;48.854;9.158;2024-01-15T04:11:01;-0.90;99.90
14016;DHT22;7083;48.854;9.158;2024-01-15T04:13:28;-0.80;99.90
14016;DHT22;7083;48.854;9.158;2024-01-15T04:15:55;-0.70;99.90
14016;DHT22;7083;48.854;9.158;2024-01-15T04:18:21;-0.70;99.90
14016;DHT22;7083;48.854;9.158;2024-01-15T04:20:48;-0.60;99.90
14016;DHT22;7083;48.854;9.158;2024-01-15T04:23:16;-0.60;99.90
14016;DHT22;7083;48.854;9.158;2024-01-15T04:25:43;-0.50;99.90
14016;DHT22;7083;48.854;9.158;2024-01-15T04:28:11;-0.50;99.90
14016;DHT22;7083;48.854;9.158;2024-01-15T04:30:38;-0.50;99.90
14016;DHT22;7083;48.854;9.158;2024-01-15T04:33:04;-0.40;99.90
14016;DHT22;7083;48.854;9.158;2024-01-15T04:35:32;-0.40;99.90
14016;DHT22;7083;48.854;9.158;2024-01-15T04:37:59;-0.40;99.90
14016;DHT22;7083;48.854;9.158;2024-01-15T04:40:27;-0.40;99.90
14016;DHT22;7083;48.854;9.158;2024-01-15T04:42:53;-0.40;99.90
14016;DHT22;7083;48.854;9.158;2024-01-15T04:45:20;-0.40;99.90
14016;DHT22;7083;48.854;9.158;2024-01-15T04:47:48;-0.30;99.90
14016;DHT22;7083;48.854;9.158;2024-01-15T04:50:15;-0.30;99.90
14016;DHT22;7083;48.854;9.158;2024-01-15T04:52:41;-0.40;99.90
14016;DHT22;7083;48.854;9.158;2024-01-15T04:55:08;-0.30;99.90
14016;DHT22;7083;48.854;9.158;2024-01-15T04:57:36;-0.30;99.90
14016;DHT22;7083;48.854;9.158;2024-01-15T05:00:04;-0.30;99.90
14016;DHT22;7083;48.854;9.158;2024-01-15T05:02:31;-0.30;99.90
14016;DHT22;7083;48.854;9.158;2024-01-15T05:04:57;-0.20;99.90
14016;DHT22;7083;48.854;9.158;2024-01-15T05:07:24;-0.20;99.90
14016;DHT22;7083;48.854;9.158;2024-01-15T05:09:51;-0.10;99.90
14016;DHT22;7083;48.854;9.158;2024-01-15T05:12:17;-0.20;99.90
14016;DHT22;7083;48.854;9.158;2024-01-15T05:14:45;-0.10;99.90
14016;DHT22;7083;48.854;9.158;2024-01-15T05:17:12;-0.10;99.90
14016;DHT22;7083;48.854;9.158;2024-01-15T05:19:39;-0.10;99.90
14016;DHT22;7083;48.854;9.158;2024-01-15T05:22:05;-0.10;99.90
14016;DHT22;7083;48.854;9.158;2024-01-15T05:24:32;-0.10;99.90
14016;DHT22;7083;48.854;9.158;2024-01-15T05:26:59;-0.10;99.90
14016;DHT22;7083;48.854;9.158;2024-01-15T05:29:25;-0.10;99.90
14016;DHT22;7083;48.854;9.158;2024-01-15T05:31:53;-0.10;99.90
14016;DHT22;7083;48.854;9.158;2024-01-15T05:34:20;0.00;99.90
14016;DHT22;7083;48.854;9.158;2024-01-15T05:36:47;-0.10;99.90
14016;DHT22;7083;48.854;9.158;2024-01-15T05:39:14;0.00;99.90
14016;DHT22;7083;48.854;9.158;2024-01-15T05:41:40;0.00;99.90
14016;DHT22;7083;48.854;9.158;2024-01-15T05:44:07;0.00;99.90
14016;DHT22;7083;48.854;9.158;2024-01-15T05:46:34;0.00;99.90
14016;DHT22;7083;48.854;9.158;2024-01-15T05:49:02;0.00;99.90
14016;DHT22;7083;48.854;9.158;2024-01-15T05:51:28;0.10;99.90
14016;DHT22;7083;48.854;9.158;2024-01-15T05:53:54;0.10;99.90
14016;DHT22;7083;48.854;9.158;2024-01-15T05:56:21;0.10;99.90
14016;DHT22;7083;48.854;9.158;2024-01-15T05:58:49;0.10;99.90
14016;DHT22;7083;48.854;9.158;2024-01-15T06:01:16;0.10;99.90
14016;DHT22;7083;48.854;9.158;2024-01-15T06:03:43;0.10;99.90
14016;DHT22;7083;48.854;9.158;2024-01-15T06:06:11;0.10;99.90
14016;DHT22;7083;48.854;9.158;2024-01-15T06:08:37;0.10;99.90
14016;DHT22;7083;48.854;9.158;2024-01-15T06:11:05;0.10;99.90
14016;DHT22;7083;48.854;9.158;2024-01-15T06:13:32;0.10;99.90
14016;DHT22;7083;48.854;9.158;2024-01-15T06:15:59;0.10;99.90
14016;DHT22;7083;48.854;9.158;2024-01-15T06:18:26;0.10;99.90
14016;DHT22;7083;48.854;9.158;2024-01-15T06:20:53;0.10;99.90
14016;DHT22;7083;48.854;9.158;2024-01-15T06:23:21;0.10;99.90
14016;DHT22;7083;48.854;9.158;2024-01-15T06:25:48;0.10;99.90
14016;DHT22;7083;48.854;9.158;2024-01-15T06:28:14;0.10;99.90
14016;DHT22;7083;48.854;9.158;2024-01-15T06:30:41;0.10;99.90
14016;DHT22;7083;48.854;9.158;2024-01-15T06:33:07;0.10;99.90
14016;DHT22;7083;48.854;9.158;2024-01-15T06:35:34;0.10;99.90
14016;DHT22;7083;48.854;9.158;2024-01-15T06:38:01;0.20;99.90
14016;DHT22;7083;48.854;9.158;2024-01-15T06:40:29;0.20;99.90
14016;DHT22;7083;48.854;9.158;2024-01-15T06:42:56;0.20;99.90
14016;DHT22;7083;48.854;9.158;2024-01-15T06:45:22;0.10;99.90
14016;DHT22;7083;48.854;9.158;2024-01-15T06:47:49;0.10;99.90
14016;DHT22;7083;48.854;9.158;2024-01-15T06:50:16;0.10;99.90
14016;DHT22;7083;48.854;9.158;2024-01-15T06:52:43;0.10;99.90
14016;DHT22;7083;48.854;9.158;2024-01-15T06:55:09;0.10;99.90
14016;DHT22;7083;48.854;9.158;2024-01-15T06:57:59;0.10;99.90
14016;DHT22;7083;48.854;9.158;2024-01-15T07:00:26;0.10;99.90
14016;DHT22;7083;48.854;9.158;2024-01-15T07:02:54;0.00;99.90
14016;DHT22;7083;48.854;9.158;2024-01-15T07:05:21;0.10;99.90
14016;DHT22;7083;48.854;9.158;2024-01-15T07:07:47;0.00;99.90
14016;DHT22;7083;48.854;9.158;2024-01-15T07:10:14;0.10;99.90
14016;DHT22;7083;48.854;9.158;2024-01-15T07:12:42;0.00;99.90
14016;DHT22;7083;48.854;9.158;2024-01-15T07:15:10;0.00;99.90
14016;DHT22;7083;48.854;9.158;2024-01-15T07:17:37;0.10;99.90
14016;DHT22;7083;48.854;9.158;2024-01-15T07:20:06;0.10;99.90
14016;DHT22;7083;48.854;9.158;2024-01-15T07:22:33;0.00;99.90
14016;DHT22;7083;48.854;9.158;2024-01-15T07:25:00;0.00;99.90
14016;DHT22;7083;48.854;9.158;2024-01-15T07:27:27;0.00;99.90
14016;DHT22;7083;48.854;9.158;2024-01-15T07:29:53;0.00;99.90
14016;DHT22;7083;48.854;9.158;2024-01-15T07:32:21;0.10;99.90
14016;DHT22;7083;48.854;9.158;2024-01-15T07:34:48;0.00;99.90
14016;DHT22;7083;48.854;9.158;2024-01-15T07:37:15;0.00;99.90
14016;DHT22;7083;48.854;9.158;2024-01-15T07:39:42;0.00;99.90
14016;DHT22;7083;48.854;9.158;2024-01-15T07:42:08;0.00;99.90
14016;DHT22;7083;48.854;9.158;2024-01-15T07:44:35;0.10;99.90
14016;DHT22;7083;48.854;9.158;2024-01-15T07:47:02;0.20;99.90
14016;DHT22;7083;48.854;9.158;2024-01-15T07:49:30;0.20;99.90
14016;DHT22;7083;48.854;9.158;2024-01-15T07:51:57;0.10;99.90
14016;DHT22;7083;48.854;9.158;2024-01-15T07:54:24;0.20;99.90
14016;DHT22;7083;48.854;9.158;2024-01-15T07:56:54;0.20;99.90
14016;DHT22;7083;48.854;9.158;2024-01-15T07:59:21;0.30;99.90
14016;DHT22;7083;48.854;9.158;2024-01-15T08:01:47;0.30;99.90
14016;DHT22;7083;48.854;9.158;2024-01-15T08:04:14;0.30;99.90
14016;DHT22;7083;48.854;9.158;2024-01-15T08:06:42;0.30;99.90
14016;DHT22;7083;48.854;9.158;2024-01-15T08:09:09;0.30;99.90
14016;DHT22;7083;48.854;9.158;2024-01-15T08:11:36;0.40;99.90
14016;DHT22;7083;48.854;9.158;2024-01-15T08:14:02;0.40;99.90
14016;DHT22;7083;48.854;9.158;2024-01-15T08:16:29;0.40;99.90
14016;DHT22;7083;48.854;9.158;2024-01-15T08:18:56;0.40;99.90
14016;DHT22;7083;48.854;9.158;2024-01-15T08:21:23;0.50;99.90
14016;DHT22;7083;48.854;9.158;2024-01-15T08:23:51;0.60;99.90
14016;DHT22;7083;48.854;9.158;2024-01-15T08:26:17;0.50;99.90
14016;DHT22;7083;48.854;9.158;2024-01-15T08:28:44;0.60;99.90
14016;DHT22;7083;48.854;9.158;2024-01-15T08:31:11;0.60;99.90
14016;DHT22;7083;48.854;9.158;2024-01-15T08:33:39;0.70;99.90
14016;DHT22;7083;48.854;9.158;2024-01-15T08:36:05;0.70;99.90
14016;DHT22;7083;48.854;9.158;2024-01-15T08:38:32;0.80;99.90
14016;DHT22;7083;48.854;9.158;2024-01-15T08:41:00;0.80;99.90
14016;DHT22;7083;48.854;9.158;2024-01-15T08:43:27;0.80;99.90
14016;DHT22;7083;48.854;9.158;2024-01-15T08:45:54;0.90;99.90
14016;DHT22;7083;48.854;9.158;2024-01-15T08:48:20;0.90;99.90
14016;DHT22;7083;48.854;9.158;2024-01-15T08:50:47;1.00;99.80
14016;DHT22;7083;48.854;9.158;2024-01-15T08:53:14;1.00;99.50
14016;DHT22;7083;48.854;9.158;2024-01-15T08:55:41;1.00;99.30
14016;DHT22;7083;48.854;9.158;2024-01-15T08:58:10;1.10;98.40
14016;DHT22;7083;48.854;9.158;2024-01-15T09:00:37;1.20;98.30
14016;DHT22;7083;48.854;9.158;2024-01-15T09:03:04;1.20;97.80
14016;DHT22;7083;48.854;9.158;2024-01-15T09:05:31;1.30;97.40
14016;DHT22;7083;48.854;9.158;2024-01-15T09:07:58;1.30;97.60
14016;DHT22;7083;48.854;9.158;2024-01-15T09:10:24;1.30;97.40
14016;DHT22;7083;48.854;9.158;2024-01-15T09:12:51;1.40;97.00
14016;DHT22;7083;48.854;9.158;2024-01-15T09:15:19;1.40;96.50
14016;DHT22;7083;48.854;9.158;2024-01-15T09:17:46;1.40;96.60
14016;DHT22;7083;48.854;9.158;2024-01-15T09:20:13;1.40;96.20
14016;DHT22;7083;48.854;9.158;2024-01-15T09:22:40;1.50;95.80
14016;DHT22;7083;48.854;9.158;2024-01-15T09:25:07;1.50;96.00
14016;DHT22;7083;48.854;9.158;2024-01-15T09:27:35;1.50;96.10
14016;DHT22;7083;48.854;9.158;2024-01-15T09:30:02;1.50;96.20
14016;DHT22;7083;48.854;9.158;2024-01-15T09:32:30;1.60;96.40
14016;DHT22;7083;48.854;9.158;2024-01-15T09:34:58;1.60;96.00
14016;DHT22;7083;48.854;9.158;2024-01-15T09:37:25;1.70;96.50
14016;DHT22;7083;48.854;9.158;2024-01-15T09:39:51;1.80;96.20
14016;DHT22;7083;48.854;9.158;2024-01-15T09:42:19;1.80;96.00
14016;DHT22;7083;48.854;9.158;2024-01-15T09:44:47;1.80;96.00
14016;DHT22;7083;48.854;9.158;2024-01-15T09:47:15;1.90;95.50
14016;DHT22;7083;48.854;9.158;2024-01-15T09:49:43;1.90;95.20
14016;DHT22;7083;48.854;9.158;2024-01-15T09:52:11;1.90;95.20
14016;DHT22;7083;48.854;9.158;2024-01-15T09:54:38;1.80;94.70
14016;DHT22;7083;48.854;9.158;2024-01-15T09:57:05;1.90;95.00
14016;DHT22;7083;48.854;9.158;2024-01-15T09:59:33;1.90;94.70
14016;DHT22;7083;48.854;9.158;2024-01-15T10:02:01;2.00;94.80
14016;DHT22;7083;48.854;9.158;2024-01-15T10:04:28;2.00;94.60
14016;DHT22;7083;48.854;9.158;2024-01-15T10:06:58;2.00;94.60
14016;DHT22;7083;48.854;9.158;2024-01-15T10:09:28;2.00;94.50
14016;DHT22;7083;48.854;9.158;2024-01-15T10:11:55;2.00;94.60
14016;DHT22;7083;48.854;9.158;2024-01-15T10:14:23;2.10;94.40
14016;DHT22;7083;48.854;9.158;2024-01-15T10:16:50;2.10;94.40
14016;DHT22;7083;48.854;9.158;2024-01-15T10:19:16;2.10;94.50
14016;DHT22;7083;48.854;9.158;2024-01-15T10:21:43;2.10;94.10
14016;DHT22;7083;48.854;9.158;2024-01-15T10:24:12;2.20;94.40
14016;DHT22;7083;48.854;9.158;2024-01-15T10:26:38;2.20;94.10
14016;DHT22;7083;48.854;9.158;2024-01-15T10:29:05;2.20;93.90
14016;DHT22;7083;48.854;9.158;2024-01-15T10:31:32;2.10;94.20
14016;DHT22;7083;48.854;9.158;2024-01-15T10:34:10;2.10;93.90
14016;DHT22;7083;48.854;9.158;2024-01-15T10:36:39;2.10;93.60
14016;DHT22;7083;48.854;9.158;2024-01-15T10:39:06;2.00;93.70
14016;DHT22;7083;48.854;9.158;2024-01-15T10:41:35;2.00;93.60
14016;DHT22;7083;48.854;9.158;2024-01-15T10:44:01;2.00;93.80
14016;DHT22;7083;48.854;9.158;2024-01-15T10:46:28;2.00;93.80
14016;DHT22;7083;48.854;9.158;2024-01-15T10:48:56;2.00;94.00
14016;DHT22;7083;48.854;9.158;2024-01-15T10:51:23;2.00;94.00
14016;DHT22;7083;48.854;9.158;2024-01-15T10:53:53;2.00;94.10
14016;DHT22;7083;48.854;9.158;2024-01-15T10:56:21;2.10;94.20
14016;DHT22;7083;48.854;9.158;2024-01-15T10:58:50;2.10;94.10
14016;DHT22;7083;48.854;9.158;2024-01-15T11:01:17;4.30;95.40
14016;DHT22;7083;48.854;9.158;2024-01-15T11:03:45;2.10;94.60
14016;DHT22;7083;48.854;9.158;2024-01-15T11:06:19;2.10;94.90
14016;DHT22;7083;48.854;9.158;2024-01-15T11:08:48;2.10;96.00
14016;DHT22;7083;48.854;9.158;2024-01-15T11:11:16;2.00;96.40
14016;DHT22;7083;48.854;9.158;2024-01-15T11:13:46;2.00;96.60
14016;DHT22;7083;48.854;9.158;2024-01-15T11:16:16;2.00;96.90
14016;DHT22;7083;48.854;9.158;2024-01-15T11:21:27;1.90;98.90
14016;DHT22;7083;48.854;9.158;2024-01-15T11:23:56;1.80;99.90
14016;DHT22;7083;48.854;9.158;2024-01-15T11:26:30;1.70;99.90
14016;DHT22;7083;48.854;9.158;2024-01-15T11:28:59;1.70;99.90
14016;DHT22;7083;48.854;9.158;2024-01-15T11:31:28;1.70;99.90
14016;DHT22;7083;48.854;9.158;2024-01-15T11:33:55;1.70;99.90
14016;DHT22;7083;48.854;9.158;2024-01-15T11:37:00;1.80;99.90
14016;DHT22;7083;48.854;9.158;2024-01-15T11:39:39;1.80;99.90
14016;DHT22;7083;48.854;9.158;2024-01-15T11:42:08;1.80;99.90
14016;DHT22;7083;48.854;9.158;2024-01-15T11:44:37;1.70;99.90
14016;DHT22;7083;48.854;9.158;2024-01-15T11:47:06;1.70;99.90
14016;DHT22;7083;48.854;9.158;2024-01-15T11:49:52;1.70;99.90
14016;DHT22;7083;48.854;9.158;2024-01-15T11:52:25;1.60;99.90
14016;DHT22;7083;48.854;9.158;2024-01-15T11:54:57;1.60;99.90
14016;DHT22;7083;48.854;9.158;2024-01-15T11:57:37;1.60;99.90
14016;DHT22;7083;48.854;9.158;2024-01-15T12:00:08;1.50;99.90
14016;DHT22;7083;48.854;9.158;2024-01-15T12:02:37;1.50;99.90
14016;DHT22;7083;48.854;9.158;2024-01-15T12:05:06;1.50;99.90
14016;DHT22;7083;48.854;9.158;2024-01-15T12:07:46;1.50;99.90
14016;DHT22;7083;48.854;9.158;2024-01-15T12:10:15;1.40;99.90
14016;DHT22;7083;48.854;9.158;2024-01-15T12:13:00;1.50;99.90
14016;DHT22;7083;48.854;9.158;2024-01-15T12:15:31;1.40;99.90
14016;DHT22;7083;48.854;9.158;2024-01-15T12:18:02;1.40;99.90
14016;DHT22;7083;48.854;9.158;2024-01-15T12:20:29;1.30;99.90
14016;DHT22;7083;48.854;9.158;2024-01-15T12:22:57;1.30;99.90
14016;DHT22;7083;48.854;9.158;2024-01-15T12:25:24;1.30;99.90
14016;DHT22;7083;48.854;9.158;2024-01-15T12:27:52;1.30;99.90
14016;DHT22;7083;48.854;9.158;2024-01-15T12:30:19;1.30;99.90
14016;DHT22;7083;48.854;9.158;2024-01-15T12:32:47;1.30;99.90
14016;DHT22;7083;48.854;9.158;2024-01-15T12:35:15;1.30;99.90
14016;DHT22;7083;48.854;9.158;2024-01-15T12:37:42;1.20;99.90
14016;DHT22;7083;48.854;9.158;2024-01-15T12:40:10;1.20;99.90
14016;DHT22;7083;48.854;9.158;2024-01-15T12:42:37;1.20;99.90
14016;DHT22;7083;48.854;9.158;2024-01-15T12:45:06;1.20;99.90
14016;DHT22;7083;48.854;9.158;2024-01-15T12:47:33;1.20;99.90
14016;DHT22;7083;48.854;9.158;2024-01-15T12:50:00;1.20;99.90
14016;DHT22;7083;48.854;9.158;2024-01-15T12:52:29;1.20;99.90
14016;DHT22;7083;48.854;9.158;2024-01-15T12:54:56;1.20;99.90
14016;DHT22;7083;48.854;9.158;2024-01-15T12:57:23;1.20;99.90
14016;DHT22;7083;48.854;9.158;2024-01-15T12:59:49;1.20;99.90
14016;DHT22;7083;48.854;9.158;2024-01-15T13:02:16;1.20;99.90
14016;DHT22;7083;48.854;9.158;2024-01-15T13:04:43;1.20;99.90
14016;DHT22;7083;48.854;9.158;2024-01-15T13:07:10;1.20;99.90
14016;DHT22;7083;48.854;9.158;2024-01-15T13:09:38;1.20;99.90
14016;DHT22;7083;48.854;9.158;2024-01-15T13:12:05;1.20;99.90
14016;DHT22;7083;48.854;9.158;2024-01-15T13:14:32;1.20;99.90
14016;DHT22;7083;48.854;9.158;2024-01-15T13:16:59;1.20;99.90
14016;DHT22;7083;48.854;9.158;2024-01-15T13:19:26;1.10;99.90
14016;DHT22;7083;48.854;9.158;2024-01-15T13:21:53;1.00;99.90
14016;DHT22;7083;48.854;9.158;2024-01-15T13:24:20;1.00;99.90
14016;DHT22;7083;48.854;9.158;2024-01-15T13:26:48;1.00;99.90
14016;DHT22;7083;48.854;9.158;2024-01-15T13:29:15;1.00;99.90
14016;DHT22;7083;48.854;9.158;2024-01-15T13:31:41;0.90;99.90
14016;DHT22;7083;48.854;9.158;2024-01-15T13:34:08;1.00;99.90
14016;DHT22;7083;48.854;9.158;2024-01-15T13:36:35;1.00;99.90
14016;DHT22;7083;48.854;9.158;2024-01-15T13:39:04;0.90;99.90
14016;DHT22;7083;48.854;9.158;2024-01-15T13:41:34;0.90;99.90
14016;DHT22;7083;48.854;9.158;2024-01-15T13:44:02;1.00;99.90
14016;DHT22;7083;48.854;9.158;2024-01-15T13:46:29;1.00;99.90
14016;DHT22;7083;48.854;9.158;2024-01-15T13:48:55;1.00;99.90
14016;DHT22;7083;48.854;9.158;2024-01-15T13:51:22;1.00;99.90
14016;DHT22;7083;48.854;9.158;2024-01-15T13:53:49;1.00;99.90
14016;DHT22;7083;48.854;9.158;2024-01-15T13:56:16;1.00;99.90
14016;DHT22;7083;48.854;9.158;2024-01-15T13:58:43;0.90;99.90
14016;DHT22;7083;48.854;9.158;2024-01-15T14:01:11;1.00;99.90
14016;DHT22;7083;48.854;9.158;2024-01-15T14:03:38;1.00;99.90
14016;DHT22;7083;48.854;9.158;2024-01-15T14:06:05;1.00;99.90
14016;DHT22;7083;48.854;9.158;2024-01-15T14:08:34;1.00;99.90
14016;DHT22;7083;48.854;9.158;2024-01-15T14:11:01;1.00;99.90
14016;DHT22;7083;48.854;9.158;2024-01-15T14:13:27;1.10;99.90
14016;DHT22;7083;48.854;9.158;2024-01-15T14:15:54;1.10;99.90
14016;DHT22;7083;48.854;9.158;2024-01-15T14:18:22;1.10;99.90
14016;DHT22;7083;48.854;9.158;2024-01-15T14:20:49;1.10;99.90
14016;DHT22;7083;48.854;9.158;2024-01-15T14:23:15;1.10;99.90
14016;DHT22;7083;48.854;9.158;2024-01-15T14:25:42;1.10;99.90
14016;DHT22;7083;48.854;9.158;2024-01-15T14:28:09;1.00;99.90
14016;DHT22;7083;48.854;9.158;2024-01-15T14:30:36;1.00;99.90
14016;DHT22;7083;48.854;9.158;2024-01-15T14:33:02;1.00;99.90
14016;DHT22;7083;48.854;9.158;2024-01-15T14:35:30;2.40;99.90
14016;DHT22;7083;48.854;9.158;2024-01-15T14:37:57;0.90;99.90
14016;DHT22;7083;48.854;9.158;2024-01-15T14:40:25;0.90;99.90
14016;DHT22;7083;48.854;9.158;2024-01-15T14:42:52;0.80;99.90
14016;DHT22;7083;48.854;9.158;2024-01-15T14:45:18;0.90;99.90
14016;DHT22;7083;48.854;9.158;2024-01-15T14:47:45;0.80;99.90
14016;DHT22;7083;48.854;9.158;2024-01-15T14:50:12;0.80;99.90
14016;DHT22;7083;48.854;9.158;2024-01-15T14:52:40;0.70;99.90
14016;DHT22;7083;48.854;9.158;2024-01-15T14:55:08;0.70;99.90
14016;DHT22;7083;48.854;9.158;2024-01-15T14:57:35;0.70;99.90
14016;DHT22;7083;48.854;9.158;2024-01-15T15:00:03;0.60;99.90
14016;DHT22;7083;48.854;9.158;2024-01-15T15:02:32;0.60;99.90
14016;DHT22;7083;48.854;9.158;2024-01-15T15:05:00;0.60;99.90
14016;DHT22;7083;48.854;9.158;2024-01-15T15:07:26;0.60;99.90
14016;DHT22;7083;48.854;9.158;2024-01-15T15:09:54;0.50;99.90
14016;DHT22;7083;48.854;9.158;2024-01-15T15:12:21;0.50;99.90
14016;DHT22;7083;48.854;9.158;2024-01-15T15:14:48;0.40;99.90
14016;DHT22;7083;48.854;9.158;2024-01-15T15:17:14;0.50;99.90
14016;DHT22;7083;48.854;9.158;2024-01-15T15:19:41;0.30;99.90
14016;DHT22;7083;48.854;9.158;2024-01-15T15:22:08;0.40;99.90
14016;DHT22;7083;48.854;9.158;2024-01-15T15:24:36;0.30;99.90
14016;DHT22;7083;48.854;9.158;2024-01-15T15:27:04;0.50;99.90
14016;DHT22;7083;48.854;9.158;2024-01-15T15:29:32;0.50;99.90
14016;DHT22;7083;48.854;9.158;2024-01-15T15:31:59;0.50;99.90
14016;DHT22;7083;48.854;9.158;2024-01-15T15:34:25;0.40;99.90
14016;DHT22;7083;48.854;9.158;2024-01-15T15:36:52;0.50;99.90
14016;DHT22;7083;48.854;9.158;2024-01-15T15:39:18;0.50;99.90
14016;DHT22;7083;48.854;9.158;2024-01-15T15:41:45;0.40;99.90
14016;DHT22;7083;48.854;9.158;2024-01-15T15:44:13;0.40;99.90
14016;DHT22;7083;48.854;9.158;2024-01-15T15:46:42;0.40;99.90
14016;DHT22;7083;48.854;9.158;2024-01-15T15:49:09;0.40;99.90
14016;DHT22;7083;48.854;9.158;2024-01-15T15:51:35;0.40;99.90
14016;DHT22;7083;48.854;9.158;2024-01-15T15:54:03;0.40;99.90
14016;DHT22;7083;48.854;9.158;2024-01-15T15:56:30;0.30;99.90
14016;DHT22;7083;48.854;9.158;2024-01-15T15:58:59;0.30;99.90
14016;DHT22;7083;48.854;9.158;2024-01-15T16:01:28;0.30;99.90
14016;DHT22;7083;48.854;9.158;2024-01-15T16:03:55;0.40;99.90